sensor_id;sensor_type;location;lat;lon;timestamp;P1;durP1;ratioP1;P2;durP2;ratioP2
9007;SDS011;62813;51.424;6.762;2023-03-08T00:01:17;12.70;;;8.27;;
9007;SDS011;62813;51.424;6.762;2023-03-08T00:03:45;10.67;;;7.83;;
9007;SDS011;62813;51.424;6.762;2023-03-08T00:06:13;10.63;;;7.70;;
9007;SDS011;62813;51.424;6.762;2023-03-08T00:08:41;11.40;;;7.90;;
9007;SDS011;62813;51.424;6.762;2023-03-08T00:11:09;10.63;;;7.93;;
9007;SDS011;62813;51.424;6.762;2023-03-08T00:13:37;12.90;;;9.57;;
9007;SDS011;62813;51.424;6.762;2023-03-08T00:16:05;12.00;;;8.23;;
9007;SDS011;62813;51.424;6.762;2023-03-08T00:18:34;9.03;;;6.80;;
9007;SDS011;62813;51.424;6.762;2023-03-08T00:21:03;8.93;;;6.80;;
9007;SDS011;62813;51.424;6.762;2023-03-08T00:23:30;9.50;;;7.10;;
9007;SDS011;62813;51.424;6.762;2023-03-08T00:25:56;10.17;;;7.80;;
9007;SDS011;62813;51.424;6.762;2023-03-08T00:28:24;10.40;;;7.40;;
9007;SDS011;62813;51.424;6.762;2023-03-08T00:30:57;10.83;;;7.60;;
9007;SDS011;62813;51.424;6.762;2023-03-08T00:33:25;8.07;;;6.83;;
9007;SDS011;62813;51.424;6.762;2023-03-08T00:35:59;11.27;;;7.20;;
9007;SDS011;62813;51.424;6.762;2023-03-08T00:38:27;10.33;;;7.67;;
9007;SDS011;62813;51.424;6.762;2023-03-08T00:40:55;9.87;;;7.57;;
9007;SDS011;62813;51.424;6.762;2023-03-08T00:43:22;10.13;;;7.17;;
9007;SDS011;62813;51.424;6.762;2023-03-08T00:45:48;9.40;;;6.67;;
9007;SDS011;62813;51.424;6.762;2023-03-08T00:48:18;12.30;;;7.77;;
9007;SDS011;62813;51.424;6.762;2023-03-08T00:50:45;9.60;;;7.47;;
9007;SDS011;62813;51.424;6.762;2023-03-08T00:53:12;11.80;;;7.27;;
9007;SDS011;62813;51.424;6.762;2023-03-08T00:55:47;8.87;;;6.93;;
9007;SDS011;62813;51.424;6.762;2023-03-08T00:58:14;7.90;;;7.10;;
9007;SDS011;62813;51.424;6.762;2023-03-08T01:00:41;12.77;;;7.77;;
9007;SDS011;62813;51.424;6.762;2023-03-08T01:03:07;9.97;;;7.57;;
9007;SDS011;62813;51.424;6.762;2023-03-08T01:05:44;8.17;;;6.87;;
9007;SDS011;62813;51.424;6.762;2023-03-08T01:08:13;9.80;;;7.27;;
9007;SDS011;62813;51.424;6.762;2023-03-08T01:10:45;11.00;;;7.10;;
9007;SDS011;62813;51.424;6.762;2023-03-08T01:13:13;11.50;;;7.27;;
9007;SDS011;62813;51.424;6.762;2023-03-08T01:15:39;10.07;;;7.73;;
9007;SDS011;62813;51.424;6.762;2023-03-08T01:18:06;9.10;;;7.13;;
9007;SDS011;62813;51.424;6.762;2023-03-08T01:20:32;9.23;;;7.07;;
9007;SDS011;62813;51.424;6.762;2023-03-08T01:22:59;11.53;;;8.57;;
9007;SDS011;62813;51.424;6.762;2023-03-08T01:25:26;8.40;;;7.33;;
9007;SDS011;62813;51.424;6.762;2023-03-08T01:27:52;12.53;;;7.13;;
9007;SDS011;62813;51.424;6.762;2023-03-08T01:30:19;10.87;;;7.97;;
9007;SDS011;62813;51.424;6.762;2023-03-08T01:32:46;10.93;;;7.43;;
9007;SDS011;62813;51.424;6.762;2023-03-08T01:35:13;11.37;;;8.77;;
9007;SDS011;62813;51.424;6.762;2023-03-08T01:37:39;9.80;;;7.40;;
9007;SDS011;62813;51.424;6.762;2023-03-08T01:40:06;12.33;;;7.60;;
9007;SDS011;62813;51.424;6.762;2023-03-08T01:42:41;9.20;;;7.20;;
9007;SDS011;62813;51.424;6.762;2023-03-08T01:48:12;9.80;;;7.40;;
9007;SDS011;62813;51.424;6.762;2023-03-08T01:50:41;9.57;;;7.27;;
9007;SDS011;62813;51.424;6.762;2023-03-08T01:53:11;10.37;;;7.77;;
9007;SDS011;62813;51.424;6.762;2023-03-08T01:55:39;10.10;;;8.07;;
9007;SDS011;62813;51.424;6.762;2023-03-08T01:58:06;10.73;;;8.07;;
9007;SDS011;62813;51.424;6.762;2023-03-08T02:00:33;9.67;;;7.70;;
9007;SDS011;62813;51.424;6.762;2023-03-08T02:03:03;10.40;;;7.93;;
9007;SDS011;62813;51.424;6.762;2023-03-08T02:05:32;8.67;;;7.67;;
9007;SDS011;62813;51.424;6.762;2023-03-08T02:08:03;9.20;;;7.50;;
9007;SDS011;62813;51.424;6.762;2023-03-08T02:10:30;11.90;;;8.07;;
9007;SDS011;62813;51.424;6.762;2023-03-08T02:12:57;10.63;;;8.17;;
9007;SDS011;62813;51.424;6.762;2023-03-08T02:15:24;10.07;;;7.43;;
9007;SDS011;62813;51.424;6.762;2023-03-08T02:17:50;10.93;;;8.10;;
9007;SDS011;62813;51.424;6.762;2023-03-08T02:20:18;11.47;;;7.80;;
9007;SDS011;62813;51.424;6.762;2023-03-08T02:22:50;10.23;;;7.80;;
9007;SDS011;62813;51.424;6.762;2023-03-08T02:25:24;11.60;;;6.50;;
9007;SDS011;62813;51.424;6.762;2023-03-08T02:27:52;10.87;;;7.47;;
9007;SDS011;62813;51.424;6.762;2023-03-08T02:30:24;9.40;;;7.50;;
9007;SDS011;62813;51.424;6.762;2023-03-08T02:32:53;9.37;;;7.37;;
9007;SDS011;62813;51.424;6.762;2023-03-08T02:35:19;10.00;;;7.50;;
9007;SDS011;62813;51.424;6.762;2023-03-08T02:37:46;10.80;;;7.87;;
9007;SDS011;62813;51.424;6.762;2023-03-08T02:40:12;10.13;;;7.57;;
9007;SDS011;62813;51.424;6.762;2023-03-08T02:42:39;10.23;;;7.23;;
9007;SDS011;62813;51.424;6.762;2023-03-08T02:45:06;9.67;;;7.60;;
9007;SDS011;62813;51.424;6.762;2023-03-08T02:47:34;10.07;;;7.60;;
9007;SDS011;62813;51.424;6.762;2023-03-08T02:50:00;14.47;;;7.63;;
9007;SDS011;62813;51.424;6.762;2023-03-08T02:52:27;8.43;;;6.80;;
9007;SDS011;62813;51.424;6.762;2023-03-08T02:54:53;8.50;;;6.60;;
9007;SDS011;62813;51.424;6.762;2023-03-08T02:57:20;10.57;;;6.10;;
9007;SDS011;62813;51.424;6.762;2023-03-08T02:59:47;8.77;;;6.47;;
9007;SDS011;62813;51.424;6.762;2023-03-08T03:02:14;8.63;;;5.67;;
9007;SDS011;62813;51.424;6.762;2023-03-08T03:04:40;9.13;;;6.20;;
9007;SDS011;62813;51.424;6.762;2023-03-08T03:07:07;8.30;;;5.43;;
9007;SDS011;62813;51.424;6.762;2023-03-08T03:09:34;9.43;;;6.03;;
9007;SDS011;62813;51.424;6.762;2023-03-08T03:12:01;6.27;;;4.90;;
9007;SDS011;62813;51.424;6.762;2023-03-08T03:14:27;7.90;;;5.53;;
9007;SDS011;62813;51.424;6.762;2023-03-08T03:16:55;6.50;;;4.47;;
9007;SDS011;62813;51.424;6.762;2023-03-08T03:19:21;6.53;;;4.60;;
9007;SDS011;62813;51.424;6.762;2023-03-08T03:21:48;7.03;;;4.90;;
9007;SDS011;62813;51.424;6.762;2023-03-08T03:24:14;6.80;;;4.97;;
9007;SDS011;62813;51.424;6.762;2023-03-08T03:26:41;7.97;;;6.83;;
9007;SDS011;62813;51.424;6.762;2023-03-08T03:29:08;8.17;;;6.10;;
9007;SDS011;62813;51.424;6.762;2023-03-08T03:31:34;9.33;;;6.23;;
9007;SDS011;62813;51.424;6.762;2023-03-08T03:34:01;9.13;;;7.03;;
9007;SDS011;62813;51.424;6.762;2023-03-08T03:36:28;9.50;;;7.63;;
9007;SDS011;62813;51.424;6.762;2023-03-08T03:38:54;10.63;;;7.70;;
9007;SDS011;62813;51.424;6.762;2023-03-08T03:41:21;12.40;;;7.67;;
9007;SDS011;62813;51.424;6.762;2023-03-08T03:43:49;11.10;;;8.07;;
9007;SDS011;62813;51.424;6.762;2023-03-08T03:46:17;11.80;;;8.00;;
9007;SDS011;62813;51.424;6.762;2023-03-08T03:48:45;13.13;;;8.40;;
9007;SDS011;62813;51.424;6.762;2023-03-08T03:51:14;10.23;;;7.97;;
9007;SDS011;62813;51.424;6.762;2023-03-08T03:53:42;13.57;;;9.30;;
9007;SDS011;62813;51.424;6.762;2023-03-08T03:56:13;11.60;;;8.67;;
9007;SDS011;62813;51.424;6.762;2023-03-08T03:58:40;11.83;;;8.70;;
9007;SDS011;62813;51.424;6.762;2023-03-08T04:01:08;13.13;;;9.90;;
9007;SDS011;62813;51.424;6.762;2023-03-08T04:03:49;12.30;;;9.20;;
9007;SDS011;62813;51.424;6.762;2023-03-08T04:06:18;11.60;;;9.27;;
9007;SDS011;62813;51.424;6.762;2023-03-08T04:08:47;13.73;;;9.30;;
9007;SDS011;62813;51.424;6.762;2023-03-08T04:11:15;11.30;;;9.07;;
9007;SDS011;62813;51.424;6.762;2023-03-08T04:13:44;12.30;;;10.17;;
9007;SDS011;62813;51.424;6.762;2023-03-08T04:16:18;15.20;;;10.20;;
9007;SDS011;62813;51.424;6.762;2023-03-08T04:18:57;15.40;;;10.47;;
9007;SDS011;62813;51.424;6.762;2023-03-08T04:21:26;13.50;;;10.10;;
9007;SDS011;62813;51.424;6.762;2023-03-08T04:23:53;13.00;;;9.73;;
9007;SDS011;62813;51.424;6.762;2023-03-08T04:26:20;15.53;;;11.43;;
9007;SDS011;62813;51.424;6.762;2023-03-08T04:28:47;15.10;;;11.40;;
9007;SDS011;62813;51.424;6.762;2023-03-08T04:31:14;16.47;;;10.33;;
9007;SDS011;62813;51.424;6.762;2023-03-08T04:33:41;14.30;;;11.60;;
9007;SDS011;62813;51.424;6.762;2023-03-08T04:36:08;13.80;;;11.20;;
9007;SDS011;62813;51.424;6.762;2023-03-08T04:38:35;15.53;;;11.50;;
9007;SDS011;62813;51.424;6.762;2023-03-08T04:41:02;16.40;;;12.13;;
9007;SDS011;62813;51.424;6.762;2023-03-08T04:43:37;17.53;;;11.83;;
9007;SDS011;62813;51.424;6.762;2023-03-08T04:46:05;16.57;;;12.57;;
9007;SDS011;62813;51.424;6.762;2023-03-08T04:48:32;17.00;;;11.03;;
9007;SDS011;62813;51.424;6.762;2023-03-08T04:51:00;17.73;;;11.97;;
9007;SDS011;62813;51.424;6.762;2023-03-08T04:53:28;18.90;;;12.97;;
9007;SDS011;62813;51.424;6.762;2023-03-08T04:55:56;15.43;;;11.53;;
9007;SDS011;62813;51.424;6.762;2023-03-08T04:58:29;16.23;;;12.07;;
9007;SDS011;62813;51.424;6.762;2023-03-08T05:00:55;16.60;;;12.67;;
9007;SDS011;62813;51.424;6.762;2023-03-08T05:03:22;20.83;;;13.17;;
9007;SDS011;62813;51.424;6.762;2023-03-08T05:05:49;17.30;;;12.83;;
9007;SDS011;62813;51.424;6.762;2023-03-08T05:08:21;18.23;;;13.60;;
9007;SDS011;62813;51.424;6.762;2023-03-08T05:10:48;20.60;;;12.93;;
9007;SDS011;62813;51.424;6.762;2023-03-08T05:13:20;19.73;;;13.67;;
9007;SDS011;62813;51.424;6.762;2023-03-08T05:15:46;18.83;;;13.13;;
9007;SDS011;62813;51.424;6.762;2023-03-08T05:18:13;16.40;;;12.93;;
9007;SDS011;62813;51.424;6.762;2023-03-08T05:20:39;17.43;;;13.43;;
9007;SDS011;62813;51.424;6.762;2023-03-08T05:23:07;16.43;;;12.87;;
9007;SDS011;62813;51.424;6.762;2023-03-08T05:25:33;18.20;;;13.03;;
9007;SDS011;62813;51.424;6.762;2023-03-08T05:28:00;17.97;;;13.10;;
9007;SDS011;62813;51.424;6.762;2023-03-08T05:30:26;17.60;;;12.73;;
9007;SDS011;62813;51.424;6.762;2023-03-08T05:32:53;18.47;;;12.90;;
9007;SDS011;62813;51.424;6.762;2023-03-08T05:35:19;16.13;;;11.80;;
9007;SDS011;62813;51.424;6.762;2023-03-08T05:37:46;15.07;;;12.10;;
9007;SDS011;62813;51.424;6.762;2023-03-08T05:40:13;18.90;;;12.93;;
9007;SDS011;62813;51.424;6.762;2023-03-08T05:42:39;18.03;;;13.57;;
9007;SDS011;62813;51.424;6.762;2023-03-08T05:45:06;17.67;;;12.80;;
9007;SDS011;62813;51.424;6.762;2023-03-08T05:47:33;21.47;;;14.30;;
9007;SDS011;62813;51.424;6.762;2023-03-08T05:50:00;17.50;;;13.07;;
9007;SDS011;62813;51.424;6.762;2023-03-08T05:52:27;17.60;;;13.20;;
9007;SDS011;62813;51.424;6.762;2023-03-08T05:54:54;22.63;;;14.07;;
9007;SDS011;62813;51.424;6.762;2023-03-08T05:57:21;17.83;;;13.43;;
9007;SDS011;62813;51.424;6.762;2023-03-08T05:59:47;19.60;;;13.90;;
9007;SDS011;62813;51.424;6.762;2023-03-08T06:02:14;21.00;;;14.47;;
9007;SDS011;62813;51.424;6.762;2023-03-08T06:04:41;20.17;;;13.60;;
9007;SDS011;62813;51.424;6.762;2023-03-08T06:07:07;20.97;;;12.63;;
9007;SDS011;62813;51.424;6.762;2023-03-08T06:09:34;19.07;;;12.90;;
9007;SDS011;62813;51.424;6.762;2023-03-08T06:12:00;19.03;;;13.57;;
9007;SDS011;62813;51.424;6.762;2023-03-08T06:14:27;17.13;;;11.47;;
9007;SDS011;62813;51.424;6.762;2023-03-08T06:16:53;16.00;;;11.10;;
9007;SDS011;62813;51.424;6.762;2023-03-08T06:19:20;16.47;;;11.33;;
9007;SDS011;62813;51.424;6.762;2023-03-08T06:21:46;16.77;;;10.77;;
9007;SDS011;62813;51.424;6.762;2023-03-08T06:24:13;10.03;;;7.00;;
9007;SDS011;62813;51.424;6.762;2023-03-08T06:26:40;11.80;;;7.23;;
9007;SDS011;62813;51.424;6.762;2023-03-08T06:29:07;10.33;;;7.40;;
9007;SDS011;62813;51.424;6.762;2023-03-08T06:31:33;9.67;;;6.63;;
9007;SDS011;62813;51.424;6.762;2023-03-08T06:34:00;10.70;;;6.27;;
9007;SDS011;62813;51.424;6.762;2023-03-08T06:36:26;7.83;;;4.90;;
9007;SDS011;62813;51.424;6.762;2023-03-08T06:38:53;9.97;;;5.50;;
9007;SDS011;62813;51.424;6.762;2023-03-08T06:41:19;7.77;;;5.27;;
9007;SDS011;62813;51.424;6.762;2023-03-08T06:43:47;9.23;;;4.80;;
9007;SDS011;62813;51.424;6.762;2023-03-08T06:46:14;8.27;;;5.23;;
9007;SDS011;62813;51.424;6.762;2023-03-08T06:48:43;9.03;;;5.63;;
9007;SDS011;62813;51.424;6.762;2023-03-08T06:51:10;7.77;;;5.23;;
9007;SDS011;62813;51.424;6.762;2023-03-08T06:53:37;6.53;;;4.43;;
9007;SDS011;62813;51.424;6.762;2023-03-08T06:56:05;6.30;;;4.27;;
9007;SDS011;62813;51.424;6.762;2023-03-08T06:58:34;6.40;;;4.40;;
9007;SDS011;62813;51.424;6.762;2023-03-08T07:01:01;6.50;;;4.23;;
9007;SDS011;62813;51.424;6.762;2023-03-08T07:03:31;6.90;;;4.10;;
9007;SDS011;62813;51.424;6.762;2023-03-08T07:05:58;6.60;;;3.80;;
9007;SDS011;62813;51.424;6.762;2023-03-08T07:08:26;5.90;;;4.10;;
9007;SDS011;62813;51.424;6.762;2023-03-08T07:10:53;7.20;;;3.73;;
9007;SDS011;62813;51.424;6.762;2023-03-08T07:13:19;10.00;;;4.37;;
9007;SDS011;62813;51.424;6.762;2023-03-08T07:15:49;4.63;;;3.40;;
9007;SDS011;62813;51.424;6.762;2023-03-08T07:18:16;5.10;;;3.43;;
9007;SDS011;62813;51.424;6.762;2023-03-08T07:20:44;5.13;;;3.43;;
9007;SDS011;62813;51.424;6.762;2023-03-08T07:23:10;6.07;;;3.83;;
9007;SDS011;62813;51.424;6.762;2023-03-08T07:25:37;7.77;;;4.07;;
9007;SDS011;62813;51.424;6.762;2023-03-08T07:28:05;5.63;;;3.60;;
9007;SDS011;62813;51.424;6.762;2023-03-08T07:30:31;5.87;;;3.93;;
9007;SDS011;62813;51.424;6.762;2023-03-08T07:32:58;6.20;;;4.20;;
9007;SDS011;62813;51.424;6.762;2023-03-08T07:35:25;4.70;;;3.50;;
9007;SDS011;62813;51.424;6.762;2023-03-08T07:37:51;5.63;;;3.33;;
9007;SDS011;62813;51.424;6.762;2023-03-08T07:40:18;4.50;;;3.43;;
9007;SDS011;62813;51.424;6.762;2023-03-08T07:42:45;4.70;;;3.30;;
9007;SDS011;62813;51.424;6.762;2023-03-08T07:45:12;4.70;;;3.63;;
9007;SDS011;62813;51.424;6.762;2023-03-08T07:47:39;6.03;;;3.40;;
9007;SDS011;62813;51.424;6.762;2023-03-08T07:50:06;3.27;;;2.57;;
9007;SDS011;62813;51.424;6.762;2023-03-08T07:52:34;5.23;;;2.80;;
9007;SDS011;62813;51.424;6.762;2023-03-08T07:55:01;5.40;;;3.10;;
9007;SDS011;62813;51.424;6.762;2023-03-08T07:57:28;3.93;;;2.97;;
9007;SDS011;62813;51.424;6.762;2023-03-08T07:59:55;6.03;;;2.90;;
9007;SDS011;62813;51.424;6.762;2023-03-08T08:02:21;4.30;;;2.87;;
9007;SDS011;62813;51.424;6.762;2023-03-08T08:04:48;5.57;;;2.70;;
9007;SDS011;62813;51.424;6.762;2023-03-08T08:07:15;6.53;;;2.50;;
9007;SDS011;62813;51.424;6.762;2023-03-08T08:09:43;3.87;;;2.57;;
9007;SDS011;62813;51.424;6.762;2023-03-08T08:12:09;4.97;;;2.67;;
9007;SDS011;62813;51.424;6.762;2023-03-08T08:14:36;7.87;;;2.67;;
9007;SDS011;62813;51.424;6.762;2023-03-08T08:17:03;13.43;;;3.30;;
9007;SDS011;62813;51.424;6.762;2023-03-08T08:19:29;9.37;;;4.33;;
9007;SDS011;62813;51.424;6.762;2023-03-08T08:21:57;4.17;;;2.77;;
9007;SDS011;62813;51.424;6.762;2023-03-08T08:24:24;4.90;;;2.80;;
9007;SDS011;62813;51.424;6.762;2023-03-08T08:26:52;5.00;;;2.80;;
9007;SDS011;62813;51.424;6.762;2023-03-08T08:29:19;5.23;;;2.97;;
9007;SDS011;62813;51.424;6.762;2023-03-08T08:31:46;4.93;;;2.60;;
9007;SDS011;62813;51.424;6.762;2023-03-08T08:34:12;3.90;;;2.40;;
9007;SDS011;62813;51.424;6.762;2023-03-08T08:36:40;3.60;;;2.63;;
9007;SDS011;62813;51.424;6.762;2023-03-08T08:39:07;3.87;;;2.43;;
9007;SDS011;62813;51.424;6.762;2023-03-08T08:41:33;4.57;;;2.67;;
9007;SDS011;62813;51.424;6.762;2023-03-08T08:44:00;3.60;;;2.20;;
9007;SDS011;62813;51.424;6.762;2023-03-08T08:46:27;2.80;;;1.90;;
9007;SDS011;62813;51.424;6.762;2023-03-08T08:48:54;3.67;;;1.80;;
9007;SDS011;62813;51.424;6.762;2023-03-08T08:51:21;5.17;;;2.20;;
9007;SDS011;62813;51.424;6.762;2023-03-08T08:53:47;2.33;;;1.63;;
9007;SDS011;62813;51.424;6.762;2023-03-08T08:56:16;3.43;;;2.00;;
9007;SDS011;62813;51.424;6.762;2023-03-08T08:58:54;2.37;;;1.70;;
9007;SDS011;62813;51.424;6.762;2023-03-08T09:01:23;3.73;;;1.93;;
9007;SDS011;62813;51.424;6.762;2023-03-08T09:03:52;4.50;;;1.70;;
9007;SDS011;62813;51.424;6.762;2023-03-08T09:06:20;3.00;;;1.70;;
9007;SDS011;62813;51.424;6.762;2023-03-08T09:08:48;5.93;;;2.10;;
9007;SDS011;62813;51.424;6.762;2023-03-08T09:11:20;2.23;;;1.70;;
9007;SDS011;62813;51.424;6.762;2023-03-08T09:13:47;2.53;;;1.90;;
9007;SDS011;62813;51.424;6.762;2023-03-08T09:18:47;2.33;;;1.70;;
9007;SDS011;62813;51.424;6.762;2023-03-08T09:21:14;3.50;;;1.60;;
9007;SDS011;62813;51.424;6.762;2023-03-08T09:23:41;1.90;;;1.30;;
9007;SDS011;62813;51.424;6.762;2023-03-08T09:26:09;3.17;;;1.80;;
9007;SDS011;62813;51.424;6.762;2023-03-08T09:28:36;3.93;;;1.90;;
9007;SDS011;62813;51.424;6.762;2023-03-08T09:31:07;3.10;;;1.50;;
9007;SDS011;62813;51.424;6.762;2023-03-08T09:33:39;5.10;;;1.90;;
9007;SDS011;62813;51.424;6.762;2023-03-08T09:36:07;2.20;;;1.60;;
9007;SDS011;62813;51.424;6.762;2023-03-08T09:38:34;2.40;;;1.50;;
9007;SDS011;62813;51.424;6.762;2023-03-08T09:41:05;1.40;;;1.30;;
9007;SDS011;62813;51.424;6.762;2023-03-08T09:43:52;2.10;;;1.33;;
9007;SDS011;62813;51.424;6.762;2023-03-08T09:46:28;2.70;;;1.50;;
9007;SDS011;62813;51.424;6.762;2023-03-08T09:48:59;1.73;;;1.50;;
9007;SDS011;62813;51.424;6.762;2023-03-08T09:51:30;1.77;;;1.50;;
9007;SDS011;62813;51.424;6.762;2023-03-08T09:54:03;2.13;;;1.70;;
9007;SDS011;62813;51.424;6.762;2023-03-08T09:56:37;5.60;;;1.53;;
9007;SDS011;62813;51.424;6.762;2023-03-08T09:59:15;2.57;;;1.70;;
9007;SDS011;62813;51.424;6.762;2023-03-08T10:09:42;3.53;;;2.47;;
9007;SDS011;62813;51.424;6.762;2023-03-08T10:15:16;2.20;;;2.00;;
9007;SDS011;62813;51.424;6.762;2023-03-08T10:17:50;3.67;;;2.10;;
9007;SDS011;62813;51.424;6.762;2023-03-08T10:20:22;2.47;;;2.27;;
9007;SDS011;62813;51.424;6.762;2023-03-08T10:22:56;3.13;;;2.00;;
9007;SDS011;62813;51.424;6.762;2023-03-08T10:25:43;3.23;;;1.93;;
9007;SDS011;62813;51.424;6.762;2023-03-08T10:28:12;2.13;;;1.77;;
9007;SDS011;62813;51.424;6.762;2023-03-08T10:30:43;2.37;;;2.10;;
9007;SDS011;62813;51.424;6.762;2023-03-08T10:33:18;2.80;;;2.10;;
9007;SDS011;62813;51.424;6.762;2023-03-08T10:35:57;2.50;;;1.90;;
9007;SDS011;62813;51.424;6.762;2023-03-08T10:38:32;2.40;;;1.90;;
9007;SDS011;62813;51.424;6.762;2023-03-08T10:41:04;3.80;;;2.30;;
9007;SDS011;62813;51.424;6.762;2023-03-08T10:43:38;4.03;;;2.37;;
9007;SDS011;62813;51.424;6.762;2023-03-08T10:46:11;4.93;;;2.60;;
9007;SDS011;62813;51.424;6.762;2023-03-08T10:48:39;3.37;;;2.10;;
9007;SDS011;62813;51.424;6.762;2023-03-08T10:51:14;2.10;;;1.90;;
9007;SDS011;62813;51.424;6.762;2023-03-08T10:53:53;3.57;;;2.67;;
9007;SDS011;62813;51.424;6.762;2023-03-08T10:56:41;3.20;;;2.10;;
9007;SDS011;62813;51.424;6.762;2023-03-08T10:59:20;4.87;;;2.40;;
9007;SDS011;62813;51.424;6.762;2023-03-08T11:02:07;3.73;;;2.70;;
9007;SDS011;62813;51.424;6.762;2023-03-08T11:04:59;2.40;;;2.20;;
9007;SDS011;62813;51.424;6.762;2023-03-08T11:07:30;3.70;;;2.70;;
9007;SDS011;62813;51.424;6.762;2023-03-08T11:12:37;4.10;;;2.30;;
9007;SDS011;62813;51.424;6.762;2023-03-08T11:15:14;3.10;;;2.80;;
9007;SDS011;62813;51.424;6.762;2023-03-08T11:17:56;5.63;;;2.20;;
9007;SDS011;62813;51.424;6.762;2023-03-08T11:20:38;3.40;;;2.30;;
9007;SDS011;62813;51.424;6.762;2023-03-08T11:25:58;3.30;;;2.40;;
9007;SDS011;62813;51.424;6.762;2023-03-08T11:31:43;2.43;;;2.23;;
9007;SDS011;62813;51.424;6.762;2023-03-08T11:36:44;3.33;;;3.00;;
9007;SDS011;62813;51.424;6.762;2023-03-08T11:39:25;2.93;;;2.63;;
9007;SDS011;62813;51.424;6.762;2023-03-08T11:50:07;3.43;;;3.13;;
9007;SDS011;62813;51.424;6.762;2023-03-08T11:52:42;3.37;;;3.07;;
9007;SDS011;62813;51.424;6.762;2023-03-08T11:57:47;4.13;;;2.47;;
9007;SDS011;62813;51.424;6.762;2023-03-08T12:02:56;3.07;;;2.87;;
9007;SDS011;62813;51.424;6.762;2023-03-08T12:05:34;4.20;;;2.90;;
9007;SDS011;62813;51.424;6.762;2023-03-08T12:10:47;3.30;;;3.00;;
9007;SDS011;62813;51.424;6.762;2023-03-08T12:13:31;4.93;;;3.00;;
9007;SDS011;62813;51.424;6.762;2023-03-08T12:18:56;3.67;;;3.33;;
9007;SDS011;62813;51.424;6.762;2023-03-08T12:21:48;4.63;;;3.43;;
9007;SDS011;62813;51.424;6.762;2023-03-08T12:32:20;4.97;;;3.63;;
9007;SDS011;62813;51.424;6.762;2023-03-08T12:34:58;4.07;;;3.67;;
9007;SDS011;62813;51.424;6.762;2023-03-08T12:37:27;4.40;;;3.43;;
9007;SDS011;62813;51.424;6.762;2023-03-08T12:39:56;5.30;;;3.70;;
9007;SDS011;62813;51.424;6.762;2023-03-08T12:42:37;4.13;;;3.77;;
9007;SDS011;62813;51.424;6.762;2023-03-08T12:47:31;4.07;;;3.60;;
9007;SDS011;62813;51.424;6.762;2023-03-08T12:50:05;3.63;;;3.33;;
9007;SDS011;62813;51.424;6.762;2023-03-08T12:52:35;6.00;;;4.03;;
9007;SDS011;62813;51.424;6.762;2023-03-08T12:55:35;4.23;;;3.83;;
9007;SDS011;62813;51.424;6.762;2023-03-08T12:57:59;5.53;;;4.10;;
9007;SDS011;62813;51.424;6.762;2023-03-08T13:00:29;4.17;;;3.77;;
9007;SDS011;62813;51.424;6.762;2023-03-08T13:03:43;4.67;;;4.03;;
9007;SDS011;62813;51.424;6.762;2023-03-08T13:05:44;3.70;;;3.40;;
9007;SDS011;62813;51.424;6.762;2023-03-08T13:11:03;4.53;;;4.13;;
9007;SDS011;62813;51.424;6.762;2023-03-08T13:13:38;5.27;;;4.53;;
9007;SDS011;62813;51.424;6.762;2023-03-08T13:18:43;7.07;;;4.30;;
9007;SDS011;62813;51.424;6.762;2023-03-08T13:21:20;4.90;;;4.50;;
9007;SDS011;62813;51.424;6.762;2023-03-08T13:26:44;4.30;;;3.90;;
9007;SDS011;62813;51.424;6.762;2023-03-08T13:29:18;5.30;;;4.80;;
9007;SDS011;62813;51.424;6.762;2023-03-08T13:31:46;5.13;;;4.63;;
9007;SDS011;62813;51.424;6.762;2023-03-08T13:36:51;5.77;;;4.87;;
9007;SDS011;62813;51.424;6.762;2023-03-08T13:39:19;5.80;;;5.30;;
9007;SDS011;62813;51.424;6.762;2023-03-08T13:41:47;5.30;;;4.80;;
9007;SDS011;62813;51.424;6.762;2023-03-08T13:44:21;5.57;;;5.07;;
9007;SDS011;62813;51.424;6.762;2023-03-08T13:46:50;6.27;;;5.63;;
9007;SDS011;62813;51.424;6.762;2023-03-08T13:49:28;5.77;;;5.20;;
9007;SDS011;62813;51.424;6.762;2023-03-08T13:52:01;6.63;;;5.37;;
9007;SDS011;62813;51.424;6.762;2023-03-08T13:54:34;5.63;;;5.13;;
9007;SDS011;62813;51.424;6.762;2023-03-08T13:57:04;5.60;;;5.10;;
9007;SDS011;62813;51.424;6.762;2023-03-08T13:59:52;5.40;;;4.90;;
9007;SDS011;62813;51.424;6.762;2023-03-08T14:02:25;7.43;;;4.90;;
9007;SDS011;62813;51.424;6.762;2023-03-08T14:04:53;6.80;;;5.50;;
9007;SDS011;62813;51.424;6.762;2023-03-08T14:07:28;6.40;;;5.50;;
9007;SDS011;62813;51.424;6.762;2023-03-08T14:09:57;6.57;;;5.90;;
9007;SDS011;62813;51.424;6.762;2023-03-08T14:12:25;7.30;;;6.50;;
9007;SDS011;62813;51.424;6.762;2023-03-08T14:14:59;6.73;;;6.10;;
9007;SDS011;62813;51.424;6.762;2023-03-08T14:17:30;8.30;;;6.87;;
9007;SDS011;62813;51.424;6.762;2023-03-08T14:20:00;7.50;;;6.47;;
9007;SDS011;62813;51.424;6.762;2023-03-08T14:22:32;7.10;;;6.37;;
9007;SDS011;62813;51.424;6.762;2023-03-08T14:25:06;6.77;;;6.10;;
9007;SDS011;62813;51.424;6.762;2023-03-08T14:27:47;6.20;;;5.63;;
9007;SDS011;62813;51.424;6.762;2023-03-08T14:30:24;7.10;;;6.50;;
9007;SDS011;62813;51.424;6.762;2023-03-08T14:35:25;7.50;;;6.80;;
9007;SDS011;62813;51.424;6.762;2023-03-08T14:37:55;6.20;;;5.40;;
9007;SDS011;62813;51.424;6.762;2023-03-08T14:40:23;7.60;;;6.80;;
9007;SDS011;62813;51.424;6.762;2023-03-08T14:42:54;7.60;;;6.90;;
9007;SDS011;62813;51.424;6.762;2023-03-08T14:48:00;8.10;;;7.30;;
9007;SDS011;62813;51.424;6.762;2023-03-08T14:50:29;8.57;;;7.17;;
9007;SDS011;62813;51.424;6.762;2023-03-08T14:52:59;9.90;;;7.60;;
9007;SDS011;62813;51.424;6.762;2023-03-08T14:55:28;7.90;;;6.97;;
9007;SDS011;62813;51.424;6.762;2023-03-08T14:58:04;9.23;;;7.93;;
9007;SDS011;62813;51.424;6.762;2023-03-08T15:00:46;9.13;;;8.23;;
9007;SDS011;62813;51.424;6.762;2023-03-08T15:03:14;9.20;;;8.27;;
9007;SDS011;62813;51.424;6.762;2023-03-08T15:05:40;8.77;;;7.80;;
9007;SDS011;62813;51.424;6.762;2023-03-08T15:08:09;9.10;;;8.20;;
9007;SDS011;62813;51.424;6.762;2023-03-08T15:10:38;9.57;;;8.67;;
9007;SDS011;62813;51.424;6.762;2023-03-08T15:13:10;9.73;;;8.73;;
9007;SDS011;62813;51.424;6.762;2023-03-08T15:15:39;9.43;;;8.43;;
9007;SDS011;62813;51.424;6.762;2023-03-08T15:18:06;9.40;;;8.50;;
9007;SDS011;62813;51.424;6.762;2023-03-08T15:20:33;10.03;;;9.03;;
9007;SDS011;62813;51.424;6.762;2023-03-08T15:23:02;9.70;;;8.70;;
9007;SDS011;62813;51.424;6.762;2023-03-08T15:25:35;10.10;;;8.70;;
9007;SDS011;62813;51.424;6.762;2023-03-08T15:28:04;9.90;;;8.90;;
9007;SDS011;62813;51.424;6.762;2023-03-08T15:30:31;11.47;;;9.97;;
9007;SDS011;62813;51.424;6.762;2023-03-08T15:32:58;11.27;;;9.87;;
9007;SDS011;62813;51.424;6.762;2023-03-08T15:35:26;10.13;;;9.13;;
9007;SDS011;62813;51.424;6.762;2023-03-08T15:37:53;13.80;;;10.50;;
9007;SDS011;62813;51.424;6.762;2023-03-08T15:40:24;11.30;;;9.83;;
9007;SDS011;62813;51.424;6.762;2023-03-08T15:42:52;11.47;;;9.43;;
9007;SDS011;62813;51.424;6.762;2023-03-08T15:45:19;10.43;;;9.43;;
9007;SDS011;62813;51.424;6.762;2023-03-08T15:50:33;11.00;;;9.90;;
9007;SDS011;62813;51.424;6.762;2023-03-08T15:53:00;13.13;;;9.93;;
9007;SDS011;62813;51.424;6.762;2023-03-08T15:55:27;11.70;;;10.27;;
9007;SDS011;62813;51.424;6.762;2023-03-08T15:57:55;11.20;;;9.23;;
9007;SDS011;62813;51.424;6.762;2023-03-08T16:00:21;10.63;;;9.53;;
9007;SDS011;62813;51.424;6.762;2023-03-08T16:02:49;10.30;;;9.20;;
9007;SDS011;62813;51.424;6.762;2023-03-08T16:05:18;12.10;;;9.47;;
9007;SDS011;62813;51.424;6.762;2023-03-08T16:07:54;11.47;;;10.17;;
9007;SDS011;62813;51.424;6.762;2023-03-08T16:10:23;11.30;;;10.20;;
9007;SDS011;62813;51.424;6.762;2023-03-08T16:12:49;11.27;;;10.07;;
9007;SDS011;62813;51.424;6.762;2023-03-08T16:15:16;12.27;;;10.97;;
9007;SDS011;62813;51.424;6.762;2023-03-08T16:17:44;12.33;;;11.00;;
9007;SDS011;62813;51.424;6.762;2023-03-08T16:20:11;11.60;;;10.17;;
9007;SDS011;62813;51.424;6.762;2023-03-08T16:22:39;11.50;;;9.57;;